Time;durP1;ratioP1;P1;durP2;ratioP2;P2;SDS_P1;SDS_P2;PMS_P1;PMS_P2;Temp;Humidity;BMP_temperature;BMP_pressure;BME280_temperature;BME280_humidity;BME280_pressure;Samples;Min_cycle;Max_cycle;Signal;HPM_P1;HPM_P2
2022/03/20 00:02:30;;;;;;;16.45;12.38;;;;;;;12.79;26.38;102816.59;5048880;28;20496;-77
2022/03/20 00:05:00;;;;;;;16.08;10.93;;;;;;;12.80;26.45;102820.19;5031865;28;20060;-77
2022/03/20 00:07:28;;;;;;;15.18;11.13;;;;;;;12.78;26.06;102817.53;5046175;28;20057;-76
2022/03/20 00:09:55;;;;;;;14.93;10.95;;;;;;;12.76;26.44;102805.84;5041523;28;20080;-78
2022/03/20 00:12:21;;;;;;;16.05;11.70;;;;;;;12.74;26.49;102799.56;5047332;28;20073;-78
2022/03/20 00:14:48;;;;;;;15.18;11.07;;;;;;;12.73;26.46;102810.53;5045916;28;20049;-76
2022/03/20 00:17:15;;;;;;;14.52;10.48;;;;;;;12.74;26.32;102793.22;5043868;28;20274;-76
2022/03/20 00:19:44;;;;;;;14.70;10.60;;;;;;;12.72;26.29;102778.78;5047146;28;20492;-76
2022/03/20 00:22:11;;;;;;;15.90;11.52;;;;;;;12.70;26.37;102777.94;5045736;28;20067;-76
2022/03/20 00:24:42;;;;;;;16.55;11.48;;;;;;;12.70;26.32;102772.50;5047622;28;20079;-76
2022/03/20 00:27:10;;;;;;;19.15;12.30;;;;;;;12.68;26.70;102774.44;5046912;28;20052;-76
2022/03/20 00:29:38;;;;;;;17.83;13.43;;;;;;;12.65;26.35;102767.28;5040559;28;20084;-76
2022/03/20 00:32:11;;;;;;;17.08;12.40;;;;;;;12.65;26.18;102760.94;5045639;28;20045;-76
2022/03/20 00:34:39;;;;;;;17.98;12.35;;;;;;;12.59;26.36;102759.38;5045230;28;20068;-76
2022/03/20 00:37:06;;;;;;;16.60;11.82;;;;;;;12.58;26.50;102761.22;5047047;28;20045;-76
2022/03/20 00:39:34;;;;;;;16.25;12.30;;;;;;;12.58;26.37;102758.50;5038585;28;20069;-76
2022/03/20 00:42:00;;;;;;;17.88;11.95;;;;;;;12.54;26.47;102754.13;5051457;28;20237;-76
2022/03/20 00:44:27;;;;;;;16.85;12.63;;;;;;;12.50;26.55;102751.63;5031375;28;20052;-76
2022/03/20 00:46:54;;;;;;;18.25;13.07;;;;;;;12.45;26.24;102738.19;5050502;28;20139;-76
2022/03/20 00:49:21;;;;;;;17.40;12.60;;;;;;;12.44;26.60;102740.97;5049274;28;20041;-76
2022/03/20 00:51:48;;;;;;;17.63;12.05;;;;;;;12.38;26.68;102744.88;5050886;28;20277;-76
2022/03/20 00:54:15;;;;;;;16.10;11.88;;;;;;;12.34;26.66;102740.53;5049757;28;20051;-76
2022/03/20 00:56:42;;;;;;;18.00;13.15;;;;;;;12.33;26.83;102732.41;5041031;28;20056;-75
2022/03/20 00:59:09;;;;;;;16.45;11.77;;;;;;;12.30;26.81;102735.25;5046097;28;20055;-76
2022/03/20 01:01:36;;;;;;;17.65;13.35;;;;;;;12.25;26.89;102716.41;5031115;28;20094;-75
2022/03/20 01:04:03;;;;;;;16.15;11.85;;;;;;;12.24;26.90;102725.53;5047814;28;20124;-76
2022/03/20 01:06:31;;;;;;;16.30;12.40;;;;;;;12.21;27.06;102720.22;5047612;28;20392;-76
2022/03/20 01:08:58;;;;;;;16.52;12.20;;;;;;;12.17;27.14;102718.59;5047235;28;20048;-76
2022/03/20 01:11:26;;;;;;;20.63;13.10;;;;;;;12.17;27.04;102700.41;5032698;28;20048;-76
2022/03/20 01:13:56;;;;;;;16.77;12.40;;;;;;;12.16;27.30;102700.47;5048621;28;20451;-76
2022/03/20 01:16:22;;;;;;;18.50;12.52;;;;;;;12.13;27.37;102700.59;5048725;28;20065;-76
2022/03/20 01:18:50;;;;;;;15.77;12.15;;;;;;;12.11;27.37;102697.06;5030599;28;20128;-77
2022/03/20 01:21:17;;;;;;;15.77;12.82;;;;;;;12.11;27.24;102694.34;5049307;28;20049;-76
2022/03/20 01:23:45;;;;;;;14.48;11.38;;;;;;;12.10;27.27;102698.03;5050044;28;20055;-77
2022/03/20 01:26:12;;;;;;;18.85;12.20;;;;;;;12.09;27.30;102688.97;5049100;28;20049;-76
2022/03/20 01:28:39;;;;;;;18.50;12.88;;;;;;;12.08;27.26;102686.31;5037873;28;20060;-76
2022/03/20 01:31:08;;;;;;;16.00;12.43;;;;;;;12.09;27.39;102688.09;5050264;28;20049;-76
2022/03/20 01:33:36;;;;;;;16.45;11.82;;;;;;;12.05;27.32;102687.31;5048906;28;20053;-76
2022/03/20 01:36:03;;;;;;;17.55;12.45;;;;;;;12.03;27.29;102674.72;5047953;28;20048;-76
2022/03/20 01:38:30;;;;;;;16.63;11.43;;;;;;;12.01;27.48;102683.00;5046351;28;20040;-76
2022/03/20 01:41:00;;;;;;;16.48;12.02;;;;;;;12.00;27.41;102678.50;5033910;28;20076;-76
2022/03/20 01:43:26;;;;;;;19.13;13.13;;;;;;;11.99;27.41;102664.94;5031971;28;20049;-76
2022/03/20 01:45:53;;;;;;;18.40;13.35;;;;;;;12.03;27.26;102661.13;5031634;28;20040;-75
2022/03/20 01:48:21;;;;;;;16.38;12.50;;;;;;;12.00;27.46;102656.72;5045262;28;20053;-77
2022/03/20 01:50:48;;;;;;;17.00;12.65;;;;;;;12.00;27.35;102653.09;5051049;28;20416;-76
2022/03/20 01:53:17;;;;;;;16.15;12.45;;;;;;;11.96;27.57;102646.91;5049725;28;20049;-76
2022/03/20 01:55:44;;;;;;;16.88;12.45;;;;;;;11.92;27.38;102642.56;5050023;28;20139;-76
2022/03/20 01:58:11;;;;;;;16.63;12.05;;;;;;;11.91;27.46;102631.72;5049257;28;20488;-76
2022/03/20 02:00:37;;;;;;;18.55;13.32;;;;;;;11.86;27.55;102633.78;5048876;28;20052;-75
2022/03/20 02:03:05;;;;;;;16.67;12.27;;;;;;;11.87;27.53;102640.97;5050822;28;20075;-76
2022/03/20 02:05:32;;;;;;;19.17;13.23;;;;;;;11.84;27.63;102624.78;5047066;28;20051;-76
2022/03/20 02:07:59;;;;;;;15.55;12.60;;;;;;;11.81;27.67;102625.81;5031579;28;20048;-76
2022/03/20 02:10:35;;;;;;;15.48;11.40;;;;;;;11.82;27.62;102633.03;5047574;28;20052;-76
2022/03/20 02:13:03;;;;;;;16.75;11.63;;;;;;;11.81;27.68;102631.25;5050212;28;20080;-76
2022/03/20 02:15:31;;;;;;;17.20;12.15;;;;;;;11.82;27.84;102622.13;5047823;28;20064;-75
2022/03/20 02:17:58;;;;;;;20.90;13.65;;;;;;;11.78;27.82;102615.03;5045869;28;20084;-75
2022/03/20 02:20:25;;;;;;;18.40;12.38;;;;;;;11.77;27.65;102606.03;5049470;28;20404;-76
2022/03/20 02:22:52;;;;;;;16.77;12.77;;;;;;;11.75;27.64;102601.59;5049746;28;20045;-76
2022/03/20 02:25:19;;;;;;;18.17;13.20;;;;;;;11.74;27.78;102607.94;5047496;28;20064;-76
2022/03/20 02:27:46;;;;;;;16.60;12.98;;;;;;;11.71;27.96;102600.78;5050623;28;20049;-76
2022/03/20 02:30:16;;;;;;;15.82;11.57;;;;;;;11.70;27.92;102596.28;5021908;28;20471;-75
2022/03/20 02:32:49;;;;;;;18.08;12.43;;;;;;;11.70;27.99;102588.13;5050533;28;20052;-75
2022/03/20 02:35:18;;;;;;;18.63;12.20;;;;;;;11.69;27.89;102580.06;5049544;28;20053;-76
2022/03/20 02:37:51;;;;;;;17.73;12.07;;;;;;;11.71;28.12;102581.75;5058842;28;20068;-76
2022/03/20 02:40:21;;;;;;;15.38;11.73;;;;;;;11.71;27.67;102578.13;5048387;28;20045;-75
2022/03/20 02:42:49;;;;;;;17.08;12.48;;;;;;;11.69;27.79;102580.94;5043341;28;20045;-76
2022/03/20 02:45:21;;;;;;;15.18;11.40;;;;;;;11.71;27.62;102579.03;5046793;28;20091;-75
2022/03/20 02:47:50;;;;;;;16.60;11.55;;;;;;;11.67;27.88;102580.13;5050121;28;20048;-75
2022/03/20 02:50:19;;;;;;;16.10;11.80;;;;;;;11.68;27.97;102571.00;5048754;28;20053;-76
2022/03/20 02:52:51;;;;;;;15.75;12.13;;;;;;;11.70;27.74;102574.53;5050101;28;20052;-76
2022/03/20 02:55:22;;;;;;;16.60;12.65;;;;;;;11.70;27.82;102568.19;5030181;28;20049;-76
2022/03/20 02:57:50;;;;;;;16.35;11.80;;;;;;;11.69;27.76;102570.06;5032792;28;20037;-75
2022/03/20 03:00:25;;;;;;;16.88;12.48;;;;;;;11.69;27.51;102570.06;5047810;28;20055;-76
2022/03/20 03:02:55;;;;;;;17.10;11.95;;;;;;;11.68;27.82;102560.13;5044005;28;20431;-75
2022/03/20 03:05:24;;;;;;;17.55;12.10;;;;;;;11.69;27.93;102556.47;5047421;28;20511;-76
2022/03/20 03:10:56;;;;;;;17.52;12.50;;;;;;;11.71;27.72;102556.38;5048268;28;20044;-75
2022/03/20 03:13:27;;;;;;;16.92;11.75;;;;;;;11.69;28.02;102556.47;5029465;28;20496;-76
2022/03/20 03:16:05;;;;;;;19.92;13.38;;;;;;;11.70;27.93;102544.59;5048353;28;20060;-75
2022/03/20 03:18:34;;;;;;;18.48;12.82;;;;;;;11.68;27.83;102538.38;5047610;28;20045;-76
2022/03/20 03:21:00;;;;;;;20.08;14.23;;;;;;;11.67;27.87;102539.31;5049860;28;20083;-75
2022/03/20 03:23:28;;;;;;;18.92;13.25;;;;;;;11.66;27.85;102537.53;5029935;28;20059;-75
2022/03/20 03:25:55;;;;;;;17.77;12.30;;;;;;;11.67;27.91;102547.47;5047880;28;20060;-75
2022/03/20 03:28:28;;;;;;;16.02;12.20;;;;;;;11.65;27.91;102538.50;5029855;28;20060;-75
2022/03/20 03:30:55;;;;;;;16.85;11.65;;;;;;;11.64;27.82;102539.44;5047717;28;20056;-75
2022/03/20 03:33:22;;;;;;;18.13;13.27;;;;;;;11.66;27.97;102523.94;5028206;28;20309;-75
2022/03/20 03:35:53;;;;;;;17.98;13.88;;;;;;;11.67;28.02;102523.00;5048470;28;20212;-75
2022/03/20 03:38:34;;;;;;;16.83;12.37;;;;;;;11.69;27.98;102520.22;5047545;28;20136;-76
2022/03/20 03:41:01;;;;;;;18.58;13.07;;;;;;;11.67;28.02;102517.56;5031593;28;20053;-75
2022/03/20 03:43:28;;;;;;;18.08;12.90;;;;;;;11.67;27.92;102512.09;5042346;28;20470;-75
2022/03/20 03:45:56;;;;;;;16.77;12.13;;;;;;;11.70;27.97;102517.38;5048636;28;20323;-76
2022/03/20 03:48:24;;;;;;;17.98;12.35;;;;;;;11.71;27.82;102508.28;5046924;28;20049;-75
2022/03/20 03:50:53;;;;;;;16.90;11.85;;;;;;;11.74;27.75;102516.34;5046649;28;20049;-75
2022/03/20 03:53:20;;;;;;;15.52;11.82;;;;;;;11.76;28.15;102511.72;5030553;28;20095;-75
2022/03/20 03:55:46;;;;;;;17.17;12.00;;;;;;;11.79;27.89;102505.25;5044268;28;20045;-75
2022/03/20 03:58:13;;;;;;;15.75;11.00;;;;;;;11.84;27.81;102505.03;5046839;28;20055;-75
2022/03/20 04:00:41;;;;;;;16.65;11.85;;;;;;;11.88;27.88;102493.94;5040090;28;20492;-76
2022/03/20 04:03:09;;;;;;;17.83;12.32;;;;;;;11.91;27.89;102490.19;5028133;28;20099;-76
2022/03/20 04:05:36;;;;;;;18.05;12.18;;;;;;;11.94;27.77;102484.63;5047050;28;20063;-76
2022/03/20 04:08:06;;;;;;;16.83;12.43;;;;;;;11.98;27.85;102487.13;5048583;28;20083;-76
2022/03/20 04:10:33;;;;;;;16.75;12.27;;;;;;;11.96;27.39;102485.41;5029215;28;20049;-75
2022/03/20 04:13:00;;;;;;;17.67;11.80;;;;;;;11.97;27.58;102470.84;5046859;28;20060;-76
2022/03/20 04:15:27;;;;;;;16.70;11.73;;;;;;;11.97;27.38;102470.84;5049393;28;20049;-75
2022/03/20 04:17:54;;;;;;;19.88;12.48;;;;;;;12.00;27.34;102462.56;5052618;28;20337;-76
2022/03/20 04:20:21;;;;;;;17.63;12.77;;;;;;;11.99;27.68;102460.78;5050788;28;20333;-76
2022/03/20 04:25:39;;;;;;;17.05;12.00;;;;;;;11.99;27.43;102447.16;5043696;28;20524;-76
2022/03/20 04:28:05;;;;;;;17.23;12.32;;;;;;;11.99;27.46;102455.34;5044789;28;20072;-76
2022/03/20 04:30:34;;;;;;;18.92;12.23;;;;;;;11.99;27.38;102450.78;5050795;28;20049;-76
2022/03/20 04:33:01;;;;;;;16.25;11.65;;;;;;;11.98;27.31;102457.19;5052602;28;20449;-76
2022/03/20 04:35:28;;;;;;;16.45;11.50;;;;;;;11.99;27.36;102458.06;5050182;28;20145;-76
2022/03/20 04:38:01;;;;;;;16.38;12.98;;;;;;;11.99;27.31;102460.78;5048758;28;20041;-75
2022/03/20 04:40:28;;;;;;;18.33;12.35;;;;;;;11.99;27.14;102456.22;5050156;28;20060;-76
2022/03/20 04:42:55;;;;;;;18.00;12.60;;;;;;;11.98;27.27;102449.00;5052476;28;20049;-76
2022/03/20 04:45:22;;;;;;;17.80;13.05;;;;;;;11.98;27.17;102446.28;5031822;28;20530;-76
2022/03/20 04:58:50;;;;;;;19.00;12.48;;;;;;;11.81;27.08;102424.41;5047746;28;20049;-76
2022/03/20 05:01:17;;;;;;;17.70;12.52;;;;;;;11.81;26.98;102427.16;5049300;28;20506;-76
2022/03/20 05:03:44;;;;;;;16.80;12.57;;;;;;;11.81;26.84;102433.47;5050874;28;20037;-76
2022/03/20 05:06:11;;;;;;;17.05;11.80;;;;;;;11.80;27.10;102430.81;5050563;28;20504;-76
2022/03/20 05:08:39;;;;;;;18.30;12.70;;;;;;;11.79;27.01;102418.16;5050364;28;20577;-76
2022/03/20 05:13:51;;;;;;;17.63;12.00;;;;;;;11.76;26.94;102410.16;5051232;28;20476;-76
2022/03/20 05:16:18;;;;;;;19.50;13.55;;;;;;;11.74;26.81;102410.22;5042499;28;20060;-76
2022/03/20 05:18:46;;;;;;;18.38;12.35;;;;;;;11.72;26.93;102413.94;5034433;28;20540;-76
2022/03/20 05:21:13;;;;;;;19.88;13.70;;;;;;;11.69;27.05;102414.97;5041249;28;20399;-76
2022/03/20 05:23:40;;;;;;;18.35;12.95;;;;;;;11.66;26.88;102414.22;5035250;28;20741;-76
2022/03/20 05:26:07;;;;;;;20.90;13.60;;;;;;;11.62;26.66;102418.03;5051152;28;20053;-76
2022/03/20 05:28:34;;;;;;;17.40;12.77;;;;;;;11.60;26.61;102414.53;5051934;28;20049;-76
2022/03/20 05:31:03;;;;;;;16.70;12.80;;;;;;;11.58;26.87;102408.25;5030627;28;20053;-76
2022/03/20 05:33:32;;;;;;;18.88;13.63;;;;;;;11.57;27.07;102411.94;5030673;28;20049;-76
2022/03/20 05:35:59;;;;;;;20.15;14.80;;;;;;;11.51;27.10;102406.78;5043541;28;20045;-76
2022/03/20 05:38:26;;;;;;;20.20;13.75;;;;;;;11.48;27.17;102404.19;5051944;28;20053;-76
2022/03/20 05:41:43;;;;;;;20.13;14.07;;;;;;;11.45;27.21;102395.22;5053456;28;20044;-76
2022/03/20 05:43:40;;;;;;;19.58;13.45;;;;;;;11.41;26.96;102384.56;5045465;28;20077;-76
2022/03/20 05:46:08;;;;;;;18.67;13.43;;;;;;;11.39;27.41;102398.22;5051035;28;20058;-76
2022/03/20 05:48:36;;;;;;;19.50;13.93;;;;;;;11.35;27.23;102398.44;5051703;28;20047;-76
2022/03/20 05:51:02;;;;;;;19.08;13.50;;;;;;;11.32;27.34;102404.00;5053161;28;20041;-76
2022/03/20 05:53:30;;;;;;;19.92;14.77;;;;;;;11.29;27.40;102405.03;5051342;28;20151;-76
2022/03/20 05:58:42;;;;;;;18.15;13.50;;;;;;;11.22;27.69;102405.38;5045980;28;20045;-76
2022/03/20 06:01:09;;;;;;;17.95;13.43;;;;;;;11.22;27.36;102408.09;5052516;28;20404;-75
2022/03/20 06:03:36;;;;;;;20.70;14.38;;;;;;;11.19;27.29;102411.84;5050854;28;20488;-76
2022/03/20 06:06:06;;;;;;;20.00;13.90;;;;;;;11.17;27.55;102408.31;5051973;28;20049;-76
2022/03/20 06:08:35;;;;;;;19.55;13.52;;;;;;;11.17;27.69;102426.44;5050118;28;20049;-76
2022/03/20 06:11:02;;;;;;;20.40;13.77;;;;;;;11.15;27.78;102421.06;5053076;28;20484;-76
2022/03/20 06:13:31;;;;;;;21.00;13.50;;;;;;;11.15;27.78;102423.78;5051660;28;20044;-76
2022/03/20 06:15:59;;;;;;;19.25;13.80;;;;;;;11.17;27.76;102430.06;5056845;28;20052;-76
2022/03/20 06:18:28;;;;;;;19.40;14.05;;;;;;;11.18;28.06;102431.81;5066793;28;20059;-76
2022/03/20 06:20:57;;;;;;;18.33;13.00;;;;;;;11.21;28.06;102425.34;5065258;28;20052;-76
2022/03/20 06:23:24;;;;;;;22.52;14.75;;;;;;;11.22;28.04;102432.56;5051273;28;20057;-76
2022/03/20 06:25:52;;;;;;;19.38;13.60;;;;;;;11.25;27.73;102427.88;5049556;28;20122;-76
2022/03/20 06:28:19;;;;;;;20.25;14.52;;;;;;;11.26;27.78;102418.78;5043465;28;20532;-76
2022/03/20 06:30:46;;;;;;;20.65;15.05;;;;;;;11.26;27.67;102424.22;5051814;28;20436;-76
2022/03/20 06:33:13;;;;;;;18.90;14.07;;;;;;;11.26;27.95;102424.22;5051683;28;20480;-76
2022/03/20 06:35:40;;;;;;;20.17;14.18;;;;;;;11.26;27.92;102423.31;5051449;28;20052;-76
2022/03/20 06:38:12;;;;;;;18.30;14.27;;;;;;;11.24;27.66;102417.06;5040274;28;20049;-76
2022/03/20 06:40:39;;;;;;;20.02;13.65;;;;;;;11.24;27.98;102409.78;5043352;28;20751;-76
2022/03/20 06:43:06;;;;;;;21.88;14.63;;;;;;;11.23;27.93;102402.59;5051640;28;20114;-76
2022/03/20 06:45:33;;;;;;;20.08;14.48;;;;;;;11.24;27.87;102409.78;5049437;28;20106;-76
2022/03/20 06:48:00;;;;;;;21.38;14.75;;;;;;;11.24;28.06;102420.66;5051942;28;20571;-77
2022/03/20 06:50:27;;;;;;;19.70;13.88;;;;;;;11.27;27.93;102401.50;5050825;28;20049;-76
2022/03/20 06:52:54;;;;;;;20.45;14.90;;;;;;;11.28;28.18;102413.28;5042411;28;20084;-76
2022/03/20 06:55:22;;;;;;;19.30;14.38;;;;;;;11.31;28.33;102404.97;5045077;28;20053;-76
2022/03/20 06:57:49;;;;;;;17.83;13.80;;;;;;;11.34;28.24;102392.13;5052107;28;20049;-76
2022/03/20 07:00:16;;;;;;;21.38;14.98;;;;;;;11.41;28.50;102392.72;5043987;28;20049;-76
2022/03/20 07:02:43;;;;;;;21.80;14.82;;;;;;;11.47;28.59;102387.00;5049855;28;20106;-76
2022/03/20 07:05:11;;;;;;;23.48;15.95;;;;;;;11.51;28.42;102385.91;5049615;28;20080;-76
2022/03/20 07:07:40;;;;;;;22.17;16.35;;;;;;;11.56;28.49;102370.25;5029017;28;20518;-76
2022/03/20 07:10:08;;;;;;;20.58;15.30;;;;;;;11.64;28.58;102359.00;5050096;28;20530;-76
2022/03/20 07:12:35;;;;;;;22.45;16.05;;;;;;;11.72;28.27;102354.06;5049331;28;20396;-76
2022/03/20 07:15:02;;;;;;;22.00;15.43;;;;;;;11.82;28.16;102358.16;5050351;28;20110;-77
2022/03/20 07:17:29;;;;;;;19.60;14.88;;;;;;;11.90;27.99;102360.50;5049244;28;20111;-76
2022/03/20 07:19:58;;;;;;;20.75;14.77;;;;;;;11.97;27.86;102364.69;5021838;28;20100;-77
2022/03/20 07:22:26;;;;;;;18.33;13.85;;;;;;;12.01;27.79;102353.59;5050702;28;20076;-76
2022/03/20 07:24:53;;;;;;;19.02;13.75;;;;;;;12.05;27.80;102357.91;5036725;28;20488;-76
2022/03/20 07:30:07;;;;;;;17.88;12.60;;;;;;;12.11;27.59;102360.34;5051188;28;20049;-76
2022/03/20 07:32:34;;;;;;;18.75;13.23;;;;;;;12.15;27.61;102345.63;5054012;28;20063;-76
2022/03/20 07:35:01;;;;;;;17.85;13.07;;;;;;;12.16;27.33;102343.78;5049734;28;20049;-76
2022/03/20 07:37:28;;;;;;;19.48;13.65;;;;;;;12.16;27.55;102338.34;5030575;28;20118;-76
2022/03/20 07:39:55;;;;;;;19.42;13.10;;;;;;;12.19;27.25;102340.88;5049541;28;20611;-76
2022/03/20 07:42:23;;;;;;;17.98;13.00;;;;;;;12.19;27.15;102328.16;5039612;28;20052;-76
2022/03/20 07:44:51;;;;;;;18.23;12.55;;;;;;;12.20;27.58;102329.03;5030282;28;20484;-76
2022/03/20 07:47:20;;;;;;;19.67;12.98;;;;;;;12.24;27.37;102316.19;5045192;28;20037;-76
2022/03/20 07:49:48;;;;;;;20.50;14.60;;;;;;;12.27;27.45;102310.59;5051313;28;20053;-77
2022/03/20 07:52:16;;;;;;;20.95;14.77;;;;;;;12.29;27.19;102316.81;5052443;28;20041;-76
2022/03/20 07:54:45;;;;;;;22.73;15.07;;;;;;;12.31;27.45;102314.91;5005666;28;20084;-76
2022/03/20 07:57:13;;;;;;;22.75;16.13;;;;;;;12.37;27.54;102323.63;5054323;28;20712;-76
2022/03/20 07:59:42;;;;;;;22.98;16.35;;;;;;;12.45;27.47;102306.91;5047653;28;20041;-76
2022/03/20 08:02:09;;;;;;;25.50;17.67;;;;;;;12.54;27.31;102299.13;5051896;28;20103;-76
2022/03/20 08:04:36;;;;;;;24.65;18.48;;;;;;;12.64;27.41;102287.75;5050297;28;20059;-77
2022/03/20 08:07:05;;;;;;;23.85;16.83;;;;;;;12.72;27.65;102296.41;5051434;28;20054;-77
2022/03/20 08:09:32;;;;;;;24.95;18.17;;;;;;;12.82;27.25;102295.84;5052386;28;20045;-77
2022/03/20 08:11:59;;;;;;;22.85;17.23;;;;;;;12.94;26.89;102297.91;5055636;28;20381;-76
2022/03/20 08:14:27;;;;;;;23.13;17.75;;;;;;;13.02;26.93;102292.03;5011226;28;20063;-77
2022/03/20 08:16:54;;;;;;;24.65;17.67;;;;;;;13.08;26.77;102289.00;5051850;28;20738;-76
2022/03/20 08:19:23;;;;;;;21.90;16.27;;;;;;;13.14;26.71;102277.78;5051175;28;20067;-77
2022/03/20 08:21:51;;;;;;;23.17;16.40;;;;;;;13.18;26.58;102276.63;5055417;28;20084;-76
2022/03/20 08:24:18;;;;;;;23.70;17.90;;;;;;;13.22;26.51;102288.25;5035639;28;20067;-76
2022/03/20 08:26:45;;;;;;;23.98;17.08;;;;;;;13.29;26.33;102286.94;5054415;28;20469;-76
2022/03/20 08:29:14;;;;;;;24.55;17.10;;;;;;;13.30;26.40;102288.72;5053350;28;20527;-76
2022/03/20 08:31:45;;;;;;;22.95;16.17;;;;;;;13.38;26.33;102286.44;5054585;28;20059;-77
2022/03/20 08:34:15;;;;;;;22.42;16.67;;;;;;;13.45;26.30;102295.16;5009199;28;20053;-76
2022/03/20 08:36:42;;;;;;;22.77;16.67;;;;;;;13.46;26.56;102286.00;5039301;28;20075;-77
2022/03/20 08:39:09;;;;;;;25.60;18.38;;;;;;;13.49;26.26;102283.13;5026544;28;20052;-76
2022/03/20 08:41:36;;;;;;;23.60;16.55;;;;;;;13.50;26.25;102290.34;5053322;28;20530;-77
2022/03/20 08:44:05;;;;;;;21.42;14.90;;;;;;;13.54;26.53;102291.91;5027256;28;20073;-76
2022/03/20 08:46:32;;;;;;;21.77;15.90;;;;;;;13.61;26.58;102290.59;5041819;28;20683;-77
2022/03/20 08:49:03;;;;;;;23.02;16.83;;;;;;;13.67;26.53;102277.47;5041594;28;20132;-77
2022/03/20 08:51:31;;;;;;;22.60;16.83;;;;;;;13.76;26.31;102280.66;5054169;28;20064;-77
2022/03/20 08:53:59;;;;;;;21.55;16.25;;;;;;;13.81;26.46;102273.97;5030129;28;20650;-76
2022/03/20 08:56:26;;;;;;;23.67;17.63;;;;;;;13.89;26.38;102276.25;5044640;28;20049;-77
2022/03/20 08:58:53;;;;;;;26.33;18.38;;;;;;;13.93;26.46;102289.63;5053058;28;20052;-75
2022/03/20 09:01:21;;;;;;;25.55;18.40;;;;;;;14.02;26.44;102310.06;5052719;28;20056;-76
2022/03/20 09:03:50;;;;;;;24.33;17.30;;;;;;;14.06;26.16;102279.78;5051814;28;20041;-76
2022/03/20 09:06:21;;;;;;;24.77;19.00;;;;;;;14.16;26.19;102281.97;5052272;28;20044;-75
2022/03/20 09:08:48;;;;;;;25.67;17.23;;;;;;;14.18;26.22;102285.47;5052524;28;20044;-76
2022/03/20 09:11:16;;;;;;;23.98;17.13;;;;;;;14.27;25.95;102282.19;5035899;28;20041;-76
2022/03/20 09:13:44;;;;;;;21.83;15.93;;;;;;;14.26;25.88;102284.03;5030951;28;20049;-76
2022/03/20 09:19:13;;;;;;;20.20;14.95;;;;;;;14.30;25.91;102285.63;5047558;28;20612;-76
2022/03/20 09:21:40;;;;;;;22.73;15.93;;;;;;;14.31;25.72;102290.13;5053394;28;20063;-76
2022/03/20 09:24:07;;;;;;;21.75;16.20;;;;;;;14.33;25.56;102288.16;5025357;28;20461;-76
2022/03/20 09:26:35;;;;;;;21.70;17.50;;;;;;;14.32;25.63;102280.06;5051899;28;20049;-76
2022/03/20 09:29:03;;;;;;;20.52;15.63;;;;;;;14.28;25.69;102278.47;5025416;28;20047;-78
2022/03/20 09:31:34;;;;;;;21.05;15.73;;;;;;;14.24;25.48;102266.88;5052400;28;20141;-76
2022/03/20 09:34:07;;;;;;;20.88;14.52;;;;;;;14.23;25.91;102283.34;5050918;28;20060;-76
2022/03/20 09:40:15;;;;;;;22.92;16.20;;;;;;;14.18;25.78;102267.22;5045020;28;20059;-76
2022/03/20 09:42:42;;;;;;;24.58;17.52;;;;;;;14.20;25.56;102262.56;5053675;28;20049;-77
2022/03/20 09:45:09;;;;;;;21.25;15.63;;;;;;;14.22;25.77;102254.28;5035148;28;20385;-77
2022/03/20 09:47:39;;;;;;;21.42;15.88;;;;;;;14.25;25.95;102256.78;5052705;28;20064;-75
2022/03/20 09:50:07;;;;;;;22.45;16.40;;;;;;;14.25;26.03;102263.16;5024946;28;20051;-76
2022/03/20 09:52:35;;;;;;;22.50;17.25;;;;;;;14.28;25.98;102264.81;5053615;28;20451;-76
2022/03/20 09:55:05;;;;;;;22.23;16.27;;;;;;;14.30;26.09;102266.50;5001760;28;20068;-76
2022/03/20 09:57:32;;;;;;;23.92;16.73;;;;;;;14.31;26.08;102257.34;5039912;28;20411;-76
2022/03/20 10:00:04;;;;;;;19.92;15.73;;;;;;;14.35;26.16;102280.75;5036257;28;20056;-76
2022/03/20 10:02:32;;;;;;;19.92;14.57;;;;;;;14.35;26.38;102274.41;5055877;28;20045;-76
2022/03/20 10:05:01;;;;;;;21.95;16.73;;;;;;;14.42;26.09;102254.84;5057179;28;20057;-76
2022/03/20 10:07:31;;;;;;;25.95;17.13;;;;;;;14.43;26.13;102261.19;5035122;28;20037;-76
2022/03/20 10:10:16;;;;;;;23.50;17.15;;;;;;;14.48;25.53;102270.00;5050505;28;20057;-75
2022/03/20 10:12:49;;;;;;;22.38;16.90;;;;;;;14.47;26.01;102273.72;5043402;28;20041;-75
2022/03/20 10:15:37;;;;;;;23.50;15.95;;;;;;;14.46;26.03;102261.91;5048456;28;20049;-76
2022/03/20 10:18:06;;;;;;;23.75;16.85;;;;;;;14.44;25.87;102263.84;5050187;28;20465;-76
2022/03/20 10:20:38;;;;;;;21.13;16.05;;;;;;;14.48;26.06;102260.94;5024046;28;20037;-76
2022/03/20 10:23:29;;;;;;;21.52;15.52;;;;;;;14.46;26.08;102250.09;5051138;28;20069;-76
2022/03/20 10:25:58;;;;;;;20.67;15.73;;;;;;;14.46;26.02;102250.97;5050748;28;20060;-76
2022/03/20 10:28:34;;;;;;;20.45;15.32;;;;;;;14.54;25.90;102255.09;5043993;28;20111;-76
2022/03/20 10:31:02;;;;;;;21.38;15.18;;;;;;;14.55;26.44;102245.91;5041450;28;20057;-76
2022/03/20 10:33:29;;;;;;;23.67;16.75;;;;;;;14.59;26.46;102242.00;5048347;28;20099;-77
2022/03/20 10:36:14;;;;;;;22.55;16.88;;;;;;;14.64;26.07;102248.97;5046489;28;20053;-76
2022/03/20 10:38:43;;;;;;;24.95;16.65;;;;;;;14.64;26.13;102232.56;5045026;28;20409;-76
2022/03/20 10:41:23;;;;;;;23.33;17.33;;;;;;;14.67;26.33;102228.75;5051641;28;20051;-76
2022/03/20 10:43:51;;;;;;;25.05;17.98;;;;;;;14.69;26.11;102238.63;5043061;28;20052;-77
2022/03/20 10:46:29;;;;;;;22.65;16.63;;;;;;;14.72;26.34;102234.81;5051430;28;20611;-75
2022/03/20 10:49:01;;;;;;;23.73;16.90;;;;;;;14.78;26.45;102226.22;5051154;28;20041;-76
2022/03/20 10:51:38;;;;;;;24.67;17.27;;;;;;;14.80;26.25;102233.38;5034132;28;20049;-76
2022/03/20 10:54:08;;;;;;;23.38;17.13;;;;;;;14.84;26.30;102221.25;5050135;28;20726;-75
2022/03/20 10:56:37;;;;;;;22.70;16.02;;;;;;;14.89;26.47;102231.03;5045348;28;20075;-76
2022/03/20 10:59:14;;;;;;;20.88;15.15;;;;;;;14.93;26.21;102229.84;5030476;28;20076;-76
2022/03/20 11:01:45;;;;;;;21.33;15.20;;;;;;;14.96;26.29;102229.66;5052324;28;20056;-76
2022/03/20 11:04:13;;;;;;;20.38;15.15;;;;;;;15.00;26.56;102233.94;5044889;28;20076;-76
2022/03/20 11:06:42;;;;;;;23.95;15.57;;;;;;;15.07;26.38;102229.88;5049884;28;20090;-76
2022/03/20 11:09:09;;;;;;;21.60;14.75;;;;;;;15.11;26.58;102229.56;5048306;28;20056;-76
2022/03/20 11:11:44;;;;;;;23.35;16.30;;;;;;;15.17;26.43;102223.69;5034064;28;20105;-76
2022/03/20 11:14:18;;;;;;;24.63;18.15;;;;;;;15.21;26.15;102208.84;5032149;28;20423;-75
2022/03/20 11:16:50;;;;;;;23.73;17.30;;;;;;;15.26;26.35;102216.75;5046372;28;20048;-75
2022/03/20 11:19:23;;;;;;;23.45;16.77;;;;;;;15.30;26.42;102222.91;5045395;28;20049;-75
2022/03/20 11:21:54;;;;;;;20.40;15.68;;;;;;;15.35;26.29;102229.84;5048058;28;20053;-75
2022/03/20 11:24:21;;;;;;;19.42;15.27;;;;;;;15.39;26.67;102256.03;5049995;28;20168;-75
2022/03/20 11:26:50;;;;;;;20.65;15.82;;;;;;;15.46;26.32;102276.56;5051317;28;20053;-76
2022/03/20 11:29:21;;;;;;;21.23;15.75;;;;;;;15.51;26.21;102243.41;5045236;28;20045;-76
2022/03/20 11:31:49;;;;;;;25.17;17.75;;;;;;;15.54;26.29;102249.59;5052044;28;20044;-76
2022/03/20 11:34:17;;;;;;;24.50;17.10;;;;;;;15.56;26.22;102238.56;5041629;28;20107;-76
2022/03/20 11:37:11;;;;;;;23.50;17.48;;;;;;;15.57;26.30;102232.94;5051128;28;20416;-76
2022/03/20 11:39:39;;;;;;;;;;;;;;;15.34;26.78;102233.53;5046869;28;20048;-76
2022/03/20 11:42:21;;;;;;;21.05;14.40;;;;;;;15.63;26.46;102241.75;5052361;28;19929;-76
2022/03/20 11:45:10;;;;;;;24.10;17.30;;;;;;;15.67;26.67;102224.13;5045623;28;20045;-76
2022/03/20 11:47:40;;;;;;;26.02;17.38;;;;;;;15.72;26.50;102217.38;5042892;28;20041;-77
2022/03/20 11:50:26;;;;;;;21.48;16.38;;;;;;;15.75;26.44;102225.38;5043348;28;20124;-77